TimePST,TemperatureF,Dew PointF,Humidity,Sea Level PressureIn,VisibilityMPH,Wind Direction,Wind SpeedMPH,Gust SpeedMPH,PrecipitationIn,Events,Conditions,WindDirDegrees,DateUTC
12:53 AM,28.9,28.0,96,29.91,10.0,Calm,Calm,-,N/A,,Clear,0,2012-11-29 08:53:00
1:53 AM,30.0,28.0,92,29.90,10.0,East,3.5,-,N/A,,Clear,90,2012-11-29 09:53:00
2:21 AM,28.4,28.4,100,29.89,10.0,Calm,Calm,-,N/A,,Partly Cloudy,0,2012-11-29 10:21:00
2:53 AM,28.9,27.0,92,29.91,9.0,East,3.5,-,N/A,,Mostly Cloudy,100,2012-11-29 10:53:00
3:53 AM,30.0,28.0,92,29.88,10.0,Calm,Calm,-,N/A,,Overcast,0,2012-11-29 11:53:00
4:53 AM,30.0,28.9,96,29.87,10.0,Calm,Calm,-,N/A,,Overcast,0,2012-11-29 12:53:00
5:53 AM,30.9,28.9,92,29.84,8.0,Calm,Calm,-,N/A,,Overcast,0,2012-11-29 13:53:00
6:53 AM,30.9,28.9,92,29.83,8.0,West,4.6,-,N/A,,Overcast,270,2012-11-29 14:53:00
7:53 AM,32.0,30.0,92,29.86,8.0,WSW,4.6,-,N/A,,Overcast,250,2012-11-29 15:53:00
8:18 AM,32.0,30.2,93,29.83,5.0,Calm,Calm,-,0.00,Rain,Light Freezing Rain,0,2012-11-29 16:18:00
8:41 AM,32.0,30.2,93,29.80,5.0,ENE,4.6,-,0.00,,Overcast,60,2012-11-29 16:41:00
8:53 AM,32.0,30.9,96,29.82,4.0,SE,3.5,-,0.00,,Overcast,130,2012-11-29 16:53:00
9:53 AM,33.1,32.0,96,29.79,5.0,East,6.9,-,0.00,,Overcast,90,2012-11-29 17:53:00
10:09 AM,33.8,32.0,93,29.76,4.0,ENE,3.5,-,N/A,,Overcast,70,2012-11-29 18:09:00
10:53 AM,35.1,33.1,92,29.78,7.0,Calm,Calm,-,N/A,,Overcast,0,2012-11-29 18:53:00
11:27 AM,35.6,33.8,93,29.76,7.0,West,4.6,-,N/A,,Overcast,270,2012-11-29 19:27:00
11:53 AM,35.1,34.0,96,29.77,4.0,West,6.9,-,N/A,,Overcast,270,2012-11-29 19:53:00
12:53 PM,35.1,33.1,92,29.75,3.0,SW,4.6,-,N/A,,Overcast,220,2012-11-29 20:53:00
1:35 PM,35.6,33.8,93,29.71,5.0,South,3.5,-,N/A,,Overcast,190,2012-11-29 21:35:00
1:53 PM,36.0,33.1,89,29.74,5.0,South,5.8,-,N/A,,Overcast,190,2012-11-29 21:53:00
2:53 PM,36.0,33.1,89,29.74,7.0,Calm,Calm,-,N/A,,Overcast,0,2012-11-29 22:53:00
3:47 PM,35.6,33.8,93,29.72,7.0,Calm,Calm,-,0.00,,Scattered Clouds,0,2012-11-29 23:47:00
3:53 PM,36.0,33.1,89,29.74,7.0,Calm,Calm,-,0.00,,Mostly Cloudy,0,2012-11-29 23:53:00
4:22 PM,35.6,33.8,93,29.72,7.0,Calm,Calm,-,N/A,,Overcast,0,2012-11-30 00:22:00
4:48 PM,35.6,33.8,93,29.70,7.0,ESE,3.5,-,N/A,,Overcast,120,2012-11-30 00:48:00
4:53 PM,36.0,33.1,89,29.72,7.0,SE,5.8,-,N/A,,Overcast,130,2012-11-30 00:53:00
5:53 PM,36.0,34.0,93,29.71,6.0,Calm,Calm,-,N/A,,Overcast,0,2012-11-30 01:53:00
6:53 PM,36.0,33.1,89,29.69,6.0,SSE,3.5,-,N/A,,Overcast,150,2012-11-30 02:53:00
7:16 PM,35.6,33.8,93,29.67,6.0,Calm,Calm,-,N/A,,Scattered Clouds,0,2012-11-30 03:16:00
7:53 PM,35.1,34.0,96,29.67,6.0,Calm,Calm,-,N/A,,Partly Cloudy,0,2012-11-30 03:53:00
8:40 PM,35.6,33.8,93,29.65,5.0,Calm,Calm,-,0.00,,Mostly Cloudy,0,2012-11-30 04:40:00
8:53 PM,36.0,34.0,93,29.66,6.0,North,3.5,-,0.00,,Mostly Cloudy,350,2012-11-30 04:53:00
9:53 PM,36.0,35.1,97,29.65,5.0,West,3.5,-,0.00,,Overcast,260,2012-11-30 05:53:00
10:35 PM,35.6,35.6,100,29.63,3.0,Calm,Calm,-,0.06,Rain,Rain,0,2012-11-30 06:35:00
10:53 PM,36.0,34.0,93,29.63,3.0,NW,4.6,-,0.08,Rain,Light Rain,310,2012-11-30 06:53:00
11:03 PM,35.6,35.6,100,29.61,4.0,NW,4.6,-,0.00,Rain,Light Rain,310,2012-11-30 07:03:00
11:17 PM,35.6,35.6,100,29.61,4.0,WNW,4.6,-,0.00,Rain,Light Rain,300,2012-11-30 07:17:00
11:53 PM,36.0,35.1,97,29.61,3.0,Calm,Calm,-,0.01,Rain,Light Rain,0,2012-11-30 07:53:00